createdAt,value
2022-08-23T00:00:01.193Z,94972.84
2022-08-23T00:02:58.324Z,94963.88
2022-08-23T00:05:46.683Z,94918.19
2022-08-23T00:08:32.672Z,94976.97
2022-08-23T00:11:30.257Z,94975.91
2022-08-23T00:14:20.951Z,94973.72
2022-08-23T00:17:09.203Z,94982.19
2022-08-23T00:19:55.204Z,94968.56
2022-08-23T00:22:41.220Z,94964.75
2022-08-23T00:25:27.171Z,94974.88
2022-08-23T00:28:14.686Z,94968.91
2022-08-23T00:31:00.955Z,94982.25
2022-08-23T00:33:46.913Z,94980.34
2022-08-23T00:36:32.842Z,94979.53
2022-08-23T00:39:19.704Z,94981.44
2022-08-23T00:42:31.091Z,94978.47
2022-08-23T00:45:39.381Z,94969.47
2022-08-23T00:48:25.888Z,94969.81
2022-08-23T00:51:25.153Z,94974.72
2022-08-23T00:54:13.257Z,94984.22
2022-08-23T00:57:01.991Z,94982.59
2022-08-23T00:59:47.849Z,94972.00
2022-08-23T01:02:34.004Z,94972.81
2022-08-23T01:05:21.908Z,94969.81
2022-08-23T01:08:08.009Z,94978.81
2022-08-23T01:10:58.121Z,94965.47
2022-08-23T01:13:58.984Z,94978.31
2022-08-23T01:16:49.012Z,94983.25
2022-08-23T01:19:40.376Z,94979.44
2022-08-23T01:22:34.350Z,94975.31
2022-08-23T01:25:22.655Z,94981.34
2022-08-23T01:28:09.120Z,94974.81
2022-08-23T01:30:55.489Z,94982.16
2022-08-23T01:33:42.752Z,94978.03
2022-08-23T01:36:29.540Z,94985.44
2022-08-23T01:39:15.452Z,94977.75
2022-08-23T01:42:01.390Z,94961.69
2022-08-23T01:44:53.969Z,94970.69
2022-08-23T01:47:41.025Z,94966.84
2022-08-23T01:50:28.900Z,94980.78
2022-08-23T01:53:15.712Z,94968.53
2022-08-23T01:56:07.418Z,94982.38
2022-08-23T01:58:55.913Z,94980.50
2022-08-23T02:01:44.941Z,94979.69
2022-08-23T02:04:31.473Z,94976.94
2022-08-23T02:07:17.614Z,94983.75
2022-08-23T02:10:05.813Z,94971.22
2022-08-23T02:12:51.959Z,94987.84
2022-08-23T02:15:44.118Z,94990.00
2022-08-23T02:18:30.582Z,94956.50
2022-08-23T02:21:17.998Z,94987.00
2022-08-23T02:24:11.340Z,94987.56
2022-08-23T02:27:00.953Z,94987.84
2022-08-23T02:29:48.296Z,94991.41
2022-08-23T02:32:36.550Z,94977.78
2022-08-23T02:35:24.186Z,95001.22
2022-08-23T02:38:12.095Z,94999.84
2022-08-23T02:41:00.750Z,95006.94
2022-08-23T02:43:52.677Z,94994.97
2022-08-23T02:46:40.704Z,95018.13
2022-08-23T02:49:26.877Z,95005.03
2022-08-23T02:52:13.088Z,95012.94
2022-08-23T02:55:00.076Z,95014.06
2022-08-23T02:57:46.268Z,95012.69
2022-08-23T03:00:32.843Z,95030.41
2022-08-23T03:03:20.163Z,95014.31
2022-08-23T03:06:25.486Z,95027.69
2022-08-23T03:09:12.549Z,95026.03
2022-08-23T03:11:58.571Z,95020.84
2022-08-23T03:14:44.892Z,95021.16
2022-08-23T03:17:32.429Z,95021.41
2022-08-23T03:20:20.185Z,95020.88
2022-08-23T03:23:06.612Z,95006.94
2022-08-23T03:25:52.961Z,95016.75
2022-08-23T03:28:46.563Z,95025.50
2022-08-23T03:31:32.968Z,95039.66
2022-08-23T03:34:25.291Z,95041.88
2022-08-23T03:37:11.523Z,95035.88
2022-08-23T03:39:58.362Z,95045.13
2022-08-23T03:42:44.348Z,95040.75
2022-08-23T03:45:32.893Z,95031.22
2022-08-23T03:48:19.302Z,95051.38
2022-08-23T03:51:05.520Z,95044.59
2022-08-23T03:53:52.298Z,95050.88
2022-08-23T03:56:50.481Z,95057.13
2022-08-23T03:59:39.282Z,95053.56
2022-08-23T04:02:27.845Z,95034.50
2022-08-23T04:05:14.328Z,95059.84
2022-08-23T04:08:33.339Z,95052.22
2022-08-23T04:11:22.988Z,95055.78
2022-08-23T04:14:17.924Z,95060.13
2022-08-23T04:17:04.340Z,95055.50
2022-08-23T04:19:50.349Z,95045.94
2022-08-23T04:22:38.263Z,95061.47
2022-08-23T04:25:34.507Z,95068.31
2022-08-23T04:28:22.828Z,95069.97
2022-08-23T04:31:09.125Z,95070.78
2022-08-23T04:33:57.953Z,95075.13
2022-08-23T04:36:55.158Z,95074.84
2022-08-23T04:40:00.318Z,95065.63
2022-08-23T04:42:53.107Z,95073.50
2022-08-23T04:45:40.561Z,95078.94
2022-08-23T04:48:32.105Z,95088.78
2022-08-23T04:51:19.159Z,95068.31
2022-08-23T04:54:06.305Z,95093.41
2022-08-23T04:57:01.756Z,95107.56
2022-08-23T04:59:49.230Z,95093.94
2022-08-23T05:02:36.241Z,95089.88
2022-08-23T05:05:22.388Z,95089.56
2022-08-23T05:08:09.624Z,95093.13
2022-08-23T05:10:56.079Z,95097.22
2022-08-23T05:13:42.041Z,95103.47
2022-08-23T05:16:29.826Z,95121.22
2022-08-23T05:19:28.014Z,95112.47
2022-08-23T05:22:14.429Z,95122.56
2022-08-23T05:25:19.500Z,95109.22
2022-08-23T05:28:06.047Z,95122.84
2022-08-23T05:31:04.557Z,95125.59
2022-08-23T05:33:58.119Z,95107.56
2022-08-23T05:36:56.072Z,95124.75
2022-08-23T05:39:56.300Z,95137.81
2022-08-23T05:42:43.189Z,95132.66
2022-08-23T05:45:29.136Z,95134.03
2022-08-23T05:48:15.836Z,95129.94
2022-08-23T05:51:21.021Z,95147.41
2022-08-23T05:54:08.482Z,95139.50
2022-08-23T05:56:54.951Z,95146.81
2022-08-23T05:59:42.032Z,95142.47
2022-08-23T06:02:28.418Z,95129.66
2022-08-23T06:05:14.324Z,95140.03
2022-08-23T06:08:03.133Z,95140.84
2022-08-23T06:10:49.785Z,95144.09
2022-08-23T06:13:45.720Z,95132.94
2022-08-23T06:16:38.560Z,95139.75
2022-08-23T06:19:25.099Z,95125.84
2022-08-23T06:22:29.827Z,95134.00
2022-08-23T06:25:15.866Z,95140.84
2022-08-23T06:28:25.776Z,95135.09
2022-08-23T06:31:14.157Z,95142.47
2022-08-23T06:34:20.291Z,95145.19
2022-08-23T06:37:23.002Z,95147.38
2022-08-23T06:40:35.421Z,95150.38
2022-08-23T06:43:40.990Z,95152.84
2022-08-23T06:46:38.973Z,95152.84
2022-08-23T06:49:25.557Z,95158.03
2022-08-23T06:52:12.473Z,95155.03
2022-08-23T06:55:16.037Z,95160.22
2022-08-23T06:58:13.877Z,95160.75
2022-08-23T07:01:44.003Z,95159.41
2022-08-23T07:04:38.608Z,95156.69
2022-08-23T07:07:44.332Z,95151.22
2022-08-23T07:10:34.488Z,95149.59
2022-08-23T07:13:20.512Z,95151.22
2022-08-23T07:16:06.954Z,95136.47
2022-08-23T07:18:55.631Z,95155.56
2022-08-23T07:21:42.566Z,95139.47
2022-08-23T07:24:33.270Z,95152.81
2022-08-23T07:27:20.952Z,95139.47
2022-08-23T07:30:16.023Z,95142.72
2022-08-23T07:33:03.905Z,95157.44
2022-08-23T10:57:37.669Z,95175.16
2022-08-23T11:00:27.473Z,95176.97
2022-08-23T11:03:29.853Z,95170.56
2022-08-23T11:06:24.780Z,95181.06
2022-08-23T11:09:18.287Z,95179.50
2022-08-23T11:12:22.342Z,95160.72
2022-08-23T11:15:11.475Z,95164.81
2022-08-23T11:18:05.674Z,95164.59
2022-08-23T11:20:58.534Z,95157.28
2022-08-23T11:23:58.629Z,95152.63
2022-08-23T11:26:46.439Z,95153.22
2022-08-23T11:29:33.873Z,95161.63
2022-08-23T11:32:43.328Z,95147.53
2022-08-23T11:35:54.857Z,95157.53
2022-08-23T11:38:48.282Z,95158.41
2022-08-23T11:41:55.395Z,95158.78
2022-08-23T11:44:48.482Z,95152.00
2022-08-23T11:47:44.513Z,95150.09
2022-08-23T11:50:55.675Z,95144.75
2022-08-23T11:53:53.173Z,95138.00
2022-08-23T11:56:48.238Z,95134.28
2022-08-23T13:00:22.292Z,95101.84
2022-08-23T13:03:29.029Z,95091.38
2022-08-23T13:06:20.867Z,95081.00
2022-08-23T13:09:21.910Z,95080.84
2022-08-23T13:12:08.885Z,95086.91
2022-08-23T13:14:57.412Z,95076.53
2022-08-23T13:17:43.619Z,95071.72
2022-08-23T13:20:29.528Z,95050.59
2022-08-23T13:23:28.632Z,95072.47
2022-08-23T13:26:42.827Z,95059.94
2022-08-23T13:29:28.945Z,95059.03
2022-08-23T13:32:25.745Z,95056.88
2022-08-23T13:35:34.268Z,95053.91
2022-08-23T13:38:22.120Z,95049.09
2022-08-23T13:41:12.485Z,95055.06
2022-08-23T13:43:58.728Z,95042.97
2022-08-23T13:46:47.329Z,95046.38
2022-08-23T13:49:36.742Z,95036.81
2022-08-23T13:53:02.772Z,95043.69
2022-08-23T13:55:29.749Z,95047.69
2022-08-23T13:58:34.933Z,95040.38
2022-08-23T14:01:20.997Z,95047.88
2022-08-23T14:04:07.819Z,95046.03
2022-08-23T14:06:54.058Z,95032.50
2022-08-23T14:09:40.157Z,95042.59
2022-08-23T14:12:29.974Z,95047.75
2022-08-23T14:15:16.081Z,95039.03
2022-08-23T14:18:02.028Z,95037.78
2022-08-23T14:20:51.408Z,95045.25
2022-08-23T14:23:37.549Z,95050.63
2022-08-23T14:26:23.501Z,95049.50
2022-08-23T14:29:09.359Z,95044.16
2022-08-23T14:32:01.373Z,95060.88
2022-08-23T14:34:47.404Z,95050.44
2022-08-23T14:40:39.341Z,95057.72
2022-08-23T14:43:26.962Z,95060.47
2022-08-23T14:46:13.329Z,95069.53
2022-08-23T14:48:59.231Z,95063.44
2022-08-23T14:51:46.491Z,95070.22
2022-08-23T14:54:33.105Z,95051.97
2022-08-23T14:57:19.272Z,95068.94
2022-08-23T15:00:08.734Z,95062.09
2022-08-23T15:02:54.993Z,95053.59
2022-08-23T15:05:41.065Z,95057.38
2022-08-23T15:08:27.060Z,95078.94
2022-08-23T15:14:24.638Z,95073.56
2022-08-23T15:17:10.764Z,95071.03
2022-08-23T15:19:56.684Z,95064.88
2022-08-23T15:22:44.366Z,95072.75
2022-08-23T15:25:33.709Z,95070.44
2022-08-23T15:28:22.310Z,95071.78
2022-08-23T15:31:12.093Z,95078.78
2022-08-23T15:33:58.323Z,95083.47
2022-08-23T15:36:44.578Z,95071.88
2022-08-23T15:39:31.291Z,95083.59
2022-08-23T15:42:20.344Z,95097.00
2022-08-23T15:45:08.363Z,95089.56
2022-08-23T15:47:56.658Z,95080.00
2022-08-23T15:50:45.104Z,95077.38
2022-08-23T15:53:31.590Z,95069.66
2022-08-23T15:56:26.010Z,95082.41
2022-08-23T15:59:14.161Z,95073.44
2022-08-23T16:02:00.553Z,95092.78
2022-08-23T16:04:47.685Z,95099.19
2022-08-23T16:07:34.732Z,95095.75
2022-08-23T16:10:21.152Z,95097.38
2022-08-23T16:13:07.050Z,95091.97
2022-08-23T16:15:53.083Z,95103.59
2022-08-23T16:18:39.290Z,95114.81
2022-08-23T16:21:27.452Z,95115.47
2022-08-23T16:24:13.949Z,95117.03
2022-08-23T16:26:59.868Z,95125.16
2022-08-23T16:29:45.782Z,95123.09
2022-08-23T16:32:31.693Z,95120.81
2022-08-23T16:35:18.442Z,95121.06
2022-08-23T16:38:04.337Z,95130.38
2022-08-23T16:40:50.350Z,95138.16
2022-08-23T16:43:36.321Z,95155.09
2022-08-23T16:46:24.170Z,95164.25
2022-08-23T16:49:16.023Z,95150.03
2022-08-23T16:52:02.657Z,95156.13
2022-08-23T16:54:48.965Z,95157.16
2022-08-23T16:57:35.092Z,95152.84
2022-08-23T17:00:21.807Z,95169.66
2022-08-23T17:03:09.963Z,95178.81
2022-08-23T17:05:56.336Z,95189.00
2022-08-23T17:08:42.470Z,95196.56
2022-08-23T17:11:32.740Z,95202.13
2022-08-23T17:14:19.383Z,95205.31
2022-08-23T17:17:05.646Z,95214.84
2022-08-23T17:19:51.778Z,95228.91
2022-08-23T17:22:38.517Z,95240.53
2022-08-23T17:25:25.145Z,95237.94
2022-08-23T17:28:11.000Z,95252.63
2022-08-23T17:30:57.026Z,95240.53
2022-08-23T17:33:43.733Z,95255.59
2022-08-23T17:36:39.199Z,95251.16
2022-08-23T17:39:29.175Z,95264.75
2022-08-23T17:42:15.171Z,95280.19
2022-08-23T17:45:01.195Z,95280.84
2022-08-23T17:47:48.865Z,95298.91
2022-08-23T17:50:35.028Z,95299.63
2022-08-23T17:53:21.117Z,95308.66
2022-08-23T17:56:08.030Z,95298.38
2022-08-23T17:58:58.300Z,95316.47
2022-08-23T18:01:44.322Z,95330.53
2022-08-23T18:04:31.377Z,95347.19
2022-08-23T18:07:17.692Z,95341.44
2022-08-23T18:10:07.216Z,95346.28
2022-08-23T18:12:53.463Z,95361.59
2022-08-23T18:15:39.603Z,95361.34
2022-08-23T18:18:26.153Z,95357.00
2022-08-23T18:21:13.152Z,95356.19
2022-08-23T18:23:59.535Z,95352.34
2022-08-23T18:27:04.566Z,95361.41
2022-08-23T18:29:51.610Z,95372.41
2022-08-23T18:32:38.227Z,95370.50
2022-08-23T18:35:26.125Z,95365.88
2022-08-23T18:38:12.754Z,95374.09
2022-08-23T18:40:58.795Z,95375.97
2022-08-23T18:43:44.837Z,95371.91
2022-08-23T18:46:36.086Z,95371.94
2022-08-23T18:49:22.442Z,95371.94
2022-08-23T18:52:08.791Z,95381.50
2022-08-23T18:54:54.985Z,95382.06
2022-08-23T18:57:40.867Z,95365.69
2022-08-23T19:00:27.160Z,95378.78
2022-08-23T19:03:13.444Z,95383.72
2022-08-23T19:05:59.729Z,95385.38
2022-08-23T19:08:46.499Z,95390.06
2022-08-23T19:11:33.530Z,95383.22
2022-08-23T19:14:19.715Z,95395.56
2022-08-23T19:17:08.121Z,95397.78
2022-08-23T19:19:54.324Z,95386.38
2022-08-23T19:22:40.124Z,95399.47
2022-08-23T19:25:27.149Z,95406.03
2022-08-23T19:28:14.641Z,95403.13
2022-08-23T19:31:01.015Z,95412.13
2022-08-23T19:33:46.878Z,95407.19
2022-08-23T19:36:45.667Z,95417.84
2022-08-23T19:39:32.159Z,95420.59
2022-08-23T19:42:20.605Z,95423.06
2022-08-23T19:45:07.721Z,95416.78
2022-08-23T19:47:54.532Z,95414.03
2022-08-23T19:50:41.365Z,95404.19
2022-08-23T19:53:27.197Z,95402.31
2022-08-23T19:56:13.365Z,95415.66
2022-08-23T19:58:59.622Z,95397.91
2022-08-23T20:01:45.846Z,95418.13
2022-08-23T20:04:32.749Z,95410.22
2022-08-23T20:07:19.063Z,95409.94
2022-08-23T20:10:07.234Z,95408.56
2022-08-23T20:12:53.615Z,95409.94
2022-08-23T20:15:40.205Z,95406.94
2022-08-23T20:18:26.217Z,95393.84
2022-08-23T20:21:12.593Z,95393.84
2022-08-23T20:24:04.929Z,95400.38
2022-08-23T20:26:52.533Z,95409.69
2022-08-23T20:29:38.556Z,95401.47
2022-08-23T20:32:24.513Z,95400.97
2022-08-23T20:35:11.638Z,95389.75
2022-08-23T20:37:57.945Z,95401.19
2022-08-23T20:40:43.676Z,95408.88
2022-08-23T20:43:29.724Z,95401.78
2022-08-23T20:46:15.706Z,95407.50
2022-08-23T20:49:01.985Z,95410.50
2022-08-23T20:51:48.264Z,95405.59
2022-08-23T20:54:36.050Z,95428.53
2022-08-23T20:57:22.123Z,95412.97
2022-08-23T21:00:08.573Z,95422.81
2022-08-23T21:02:54.366Z,95420.91
2022-08-23T21:05:40.468Z,95420.34
2022-08-23T21:08:27.456Z,95407.25
2022-08-23T21:11:13.529Z,95427.72
2022-08-23T21:13:59.486Z,95429.91
2022-08-23T21:16:45.749Z,95421.97
2022-08-23T21:19:31.559Z,95429.91
2022-08-23T21:22:17.485Z,95435.63
2022-08-23T21:25:03.547Z,95422.53
2022-08-23T21:27:49.744Z,95420.06
2022-08-23T21:30:36.476Z,95427.44
2022-08-23T21:33:22.424Z,95421.69
2022-08-23T21:36:10.033Z,95427.41
2022-08-23T21:38:56.703Z,95417.81
2022-08-23T21:41:44.502Z,95422.75
2022-08-23T21:44:30.449Z,95427.94
2022-08-23T21:47:16.731Z,95425.75
2022-08-23T21:50:02.611Z,95414.28
2022-08-23T21:52:56.539Z,95428.72
2022-08-23T21:55:42.995Z,95419.19
2022-08-23T21:58:30.673Z,95438.59
2022-08-23T22:01:16.589Z,95430.09
2022-08-23T22:04:06.064Z,95437.19
2022-08-23T22:06:52.004Z,95428.72
2022-08-23T22:09:42.233Z,95438.28
2022-08-23T22:12:28.121Z,95449.19
2022-08-23T22:15:14.587Z,95452.16
2022-08-23T22:18:01.553Z,95444.50
2022-08-23T22:20:47.496Z,95461.72
2022-08-23T22:23:34.145Z,95461.72
2022-08-23T22:26:20.802Z,95448.88
2022-08-23T22:29:07.350Z,95451.31
2022-08-23T22:31:53.762Z,95454.56
2022-08-23T22:34:39.754Z,95459.50
2022-08-23T22:37:25.616Z,95458.97
2022-08-23T22:40:12.087Z,95447.47
2022-08-23T22:42:59.299Z,95449.66
2022-08-23T22:45:52.014Z,95448.28
2022-08-23T22:48:38.346Z,95464.66
2022-08-23T22:51:27.659Z,95459.19
2022-08-23T22:54:15.184Z,95450.72
2022-08-23T22:57:00.894Z,95457.03
2022-08-23T22:59:46.801Z,95419.25
2022-08-23T23:02:36.425Z,95444.72
2022-08-23T23:05:22.841Z,95442.50
2022-08-23T23:08:27.301Z,95429.63
2022-08-23T23:11:14.324Z,95429.34
2022-08-23T23:14:00.342Z,95447.06
2022-08-23T23:16:49.220Z,95451.72
2022-08-23T23:19:54.145Z,95435.56
2022-08-23T23:22:40.077Z,95440.47
2022-08-23T23:25:25.853Z,95457.41
2022-08-23T23:28:12.165Z,95435.00
2022-08-23T23:30:59.384Z,95444.00
2022-08-23T23:33:45.558Z,95433.38
2022-08-23T23:36:31.552Z,95424.59
2022-08-23T23:39:17.673Z,95409.84
2022-08-23T23:42:03.580Z,95425.16
2022-08-23T23:44:49.741Z,95400.03
2022-08-23T23:47:35.526Z,95404.47
2022-08-23T23:50:22.252Z,95399.50
2022-08-23T23:53:08.741Z,95375.97
2022-08-23T23:56:02.083Z,95396.19
2022-08-23T23:58:48.623Z,95397.00
